createdAt,value
2017-08-28T00:00:45.025Z,1006.84
2017-08-28T00:01:44.726Z,1006.83
2017-08-28T00:02:44.720Z,1006.85
2017-08-28T00:03:44.707Z,1006.83
2017-08-28T00:04:44.695Z,1006.82
2017-08-28T00:05:44.692Z,1006.77
2017-08-28T00:06:44.708Z,1006.80
2017-08-28T00:07:44.675Z,1006.76
2017-08-28T00:08:44.663Z,1006.79
2017-08-28T00:09:44.689Z,1006.81
2017-08-28T00:10:44.655Z,1006.79
2017-08-28T00:11:44.644Z,1006.80
2017-08-28T00:12:44.634Z,1006.81
2017-08-28T00:13:44.625Z,1006.79
2017-08-28T00:14:44.909Z,1006.78
2017-08-28T00:15:44.605Z,1006.79
2017-08-28T00:16:44.609Z,1006.77
2017-08-28T00:17:44.598Z,1006.77
2017-08-28T00:18:44.582Z,1006.78
2017-08-28T00:19:44.586Z,1006.77
2017-08-28T00:20:44.926Z,1006.76
2017-08-28T00:21:44.556Z,1006.76
2017-08-28T00:22:44.561Z,1006.79
2017-08-28T00:23:44.539Z,1006.78
2017-08-28T00:24:44.549Z,1006.74
2017-08-28T00:25:44.522Z,1006.81
2017-08-28T00:26:44.730Z,1006.81
2017-08-28T00:27:44.506Z,1006.85
2017-08-28T00:28:44.499Z,1006.84
2017-08-28T00:29:44.492Z,1006.82
2017-08-28T00:30:44.482Z,1006.83
2017-08-28T00:31:44.481Z,1006.91
2017-08-28T00:32:44.840Z,1006.89
2017-08-28T00:33:44.454Z,1006.89
2017-08-28T00:34:44.457Z,1006.87
2017-08-28T00:35:44.440Z,1006.88
2017-08-28T00:36:44.446Z,1006.91
2017-08-28T00:37:44.425Z,1006.94
2017-08-28T00:38:44.451Z,1006.88
2017-08-28T00:39:44.406Z,1006.93
2017-08-28T00:40:44.403Z,1006.91
2017-08-28T00:41:44.809Z,1006.90
2017-08-28T00:42:44.381Z,1006.91
2017-08-28T00:43:44.377Z,1006.90
2017-08-28T00:44:44.369Z,1006.89
2017-08-28T00:45:44.362Z,1006.84
2017-08-28T00:46:44.355Z,1006.87
2017-08-28T00:47:44.731Z,1006.84
2017-08-28T00:48:44.339Z,1006.87
2017-08-28T00:49:44.332Z,1006.83
2017-08-28T00:50:44.309Z,1006.81
2017-08-28T00:51:44.315Z,1006.82
2017-08-28T00:52:44.292Z,1006.84
2017-08-28T00:53:44.326Z,1006.82
2017-08-28T00:54:44.287Z,1006.81
2017-08-28T00:55:44.285Z,1006.81
2017-08-28T00:56:44.620Z,1006.84
2017-08-28T00:57:44.261Z,1006.83
2017-08-28T00:58:44.255Z,1006.84
2017-08-28T00:59:44.258Z,1006.82
2017-08-28T01:00:44.245Z,1006.80
2017-08-28T01:01:44.220Z,1006.83
2017-08-28T01:02:44.556Z,1006.85
2017-08-28T01:03:44.210Z,1006.81
2017-08-28T01:04:44.195Z,1006.81
2017-08-28T01:05:44.203Z,1006.79
2017-08-28T01:06:44.176Z,1006.84
2017-08-28T01:07:44.187Z,1006.84
2017-08-28T01:08:44.547Z,1006.83
2017-08-28T01:09:44.168Z,1006.88
2017-08-28T01:10:44.141Z,1006.85
2017-08-28T01:11:44.149Z,1006.87
2017-08-28T01:12:44.125Z,1006.86
2017-08-28T01:13:44.129Z,1006.91
2017-08-28T01:14:44.339Z,1006.91
2017-08-28T01:15:44.110Z,1006.93
2017-08-28T01:16:44.099Z,1006.95
2017-08-28T01:17:44.103Z,1006.92
2017-08-28T01:18:44.086Z,1006.93
2017-08-28T01:19:44.070Z,1006.91
2017-08-28T01:20:44.505Z,1006.94
2017-08-28T01:21:44.061Z,1006.92
2017-08-28T01:22:44.034Z,1006.94
2017-08-28T01:23:44.036Z,1006.90
2017-08-28T01:24:44.023Z,1006.90
2017-08-28T01:25:44.047Z,1006.87
2017-08-28T01:26:44.357Z,1006.90
2017-08-28T01:27:43.997Z,1006.86
2017-08-28T01:28:44.006Z,1006.85
2017-08-28T01:29:43.987Z,1006.85
2017-08-28T01:30:43.976Z,1006.86
2017-08-28T01:31:43.983Z,1006.85
2017-08-28T01:32:44.349Z,1006.89
2017-08-28T01:33:43.953Z,1006.90
2017-08-28T01:34:43.936Z,1006.91
2017-08-28T01:35:43.927Z,1006.90
2017-08-28T01:36:43.932Z,1006.90
2017-08-28T01:37:43.927Z,1006.90
2017-08-28T01:38:43.936Z,1006.94
2017-08-28T01:39:43.908Z,1006.94
2017-08-28T01:40:43.898Z,1006.91
2017-08-28T01:41:43.895Z,1006.92
2017-08-28T01:42:44.242Z,1006.90
2017-08-28T01:43:43.863Z,1006.90
2017-08-28T01:44:43.865Z,1006.92
2017-08-28T01:45:43.855Z,1006.93
2017-08-28T01:46:43.855Z,1006.89
2017-08-28T01:47:43.833Z,1006.88
2017-08-28T01:48:43.851Z,1006.89
2017-08-28T01:49:43.817Z,1006.87
2017-08-28T01:50:43.803Z,1006.87
2017-08-28T01:51:43.802Z,1006.86
2017-08-28T01:52:44.219Z,1006.88
2017-08-28T01:53:43.774Z,1006.86
2017-08-28T01:54:43.763Z,1006.86
2017-08-28T01:55:43.773Z,1006.83
2017-08-28T01:56:43.757Z,1006.86
2017-08-28T01:57:43.744Z,1006.83
2017-08-28T01:58:44.129Z,1006.84
2017-08-28T01:59:43.728Z,1006.81
2017-08-28T02:00:43.711Z,1006.80
2017-08-28T02:01:43.707Z,1006.81
2017-08-28T02:02:43.713Z,1006.85
2017-08-28T02:03:43.704Z,1006.80
2017-08-28T02:04:43.723Z,1006.84
2017-08-28T02:05:43.684Z,1006.84
2017-08-28T02:06:43.664Z,1006.82
2017-08-28T02:07:43.654Z,1006.81
2017-08-28T02:08:43.641Z,1006.82
2017-08-28T02:09:43.677Z,1006.81
2017-08-28T02:10:43.649Z,1006.80
2017-08-28T02:11:43.626Z,1006.76
2017-08-28T02:12:43.612Z,1006.83
2017-08-28T02:13:43.601Z,1006.81
2017-08-28T02:14:43.956Z,1006.83
2017-08-28T02:15:43.613Z,1006.85
2017-08-28T02:16:43.575Z,1006.88
2017-08-28T02:17:43.583Z,1006.87
2017-08-28T02:18:43.575Z,1006.87
2017-08-28T02:19:43.553Z,1006.83
2017-08-28T02:20:43.978Z,1006.89
2017-08-28T02:21:43.541Z,1006.88
2017-08-28T02:22:43.541Z,1006.85
2017-08-28T02:23:43.514Z,1006.89
2017-08-28T02:24:43.513Z,1006.83
2017-08-28T02:25:43.494Z,1006.84
2017-08-28T02:26:43.941Z,1006.80
2017-08-28T02:27:43.499Z,1006.81
2017-08-28T02:28:43.487Z,1006.83
2017-08-28T02:29:43.478Z,1006.82
2017-08-28T02:30:43.458Z,1006.80
2017-08-28T02:31:43.450Z,1006.75
2017-08-28T02:32:43.476Z,1006.75
2017-08-28T02:33:43.436Z,1006.76
2017-08-28T02:34:43.865Z,1006.72
2017-08-28T02:35:43.427Z,1006.73
2017-08-28T02:36:43.407Z,1006.73
2017-08-28T02:37:43.392Z,1006.69
2017-08-28T02:38:43.387Z,1006.71
2017-08-28T02:39:43.376Z,1006.71
2017-08-28T02:40:43.736Z,1006.68
2017-08-28T02:41:43.371Z,1006.71
2017-08-28T02:42:43.361Z,1006.70
2017-08-28T02:43:43.338Z,1006.69
2017-08-28T02:44:43.336Z,1006.67
2017-08-28T02:45:43.327Z,1006.69
2017-08-28T02:46:43.622Z,1006.64
2017-08-28T02:47:43.323Z,1006.66
2017-08-28T02:48:43.321Z,1006.62
2017-08-28T02:49:43.289Z,1006.64
2017-08-28T02:50:43.290Z,1006.61
2017-08-28T02:51:43.286Z,1006.64
2017-08-28T02:52:43.703Z,1006.65
2017-08-28T02:53:43.254Z,1006.60
2017-08-28T02:54:43.264Z,1006.60
2017-08-28T02:55:43.248Z,1006.57
2017-08-28T02:56:43.241Z,1006.58
2017-08-28T02:57:43.218Z,1006.56
2017-08-28T02:58:43.522Z,1006.52
2017-08-28T02:59:43.205Z,1006.55
2017-08-28T03:00:43.195Z,1006.54
2017-08-28T03:01:43.207Z,1006.51
2017-08-28T03:02:43.173Z,1006.54
2017-08-28T03:03:43.176Z,1006.57
2017-08-28T03:04:43.481Z,1006.53
2017-08-28T03:05:43.149Z,1006.52
2017-08-28T03:06:43.149Z,1006.53
2017-08-28T03:07:43.132Z,1006.54
2017-08-28T03:08:43.123Z,1006.55
2017-08-28T03:09:43.121Z,1006.53
2017-08-28T03:10:43.518Z,1006.56
2017-08-28T03:11:43.106Z,1006.54
2017-08-28T03:12:43.093Z,1006.54
2017-08-28T03:13:43.086Z,1006.55
2017-08-28T03:14:43.084Z,1006.54
2017-08-28T03:15:43.064Z,1006.53
2017-08-28T03:16:43.496Z,1006.54
2017-08-28T03:17:43.048Z,1006.54
2017-08-28T03:18:43.036Z,1006.52
2017-08-28T03:19:43.044Z,1006.57
2017-08-28T03:20:43.018Z,1006.57
2017-08-28T03:21:43.021Z,1006.52
2017-08-28T03:22:43.362Z,1006.59
2017-08-28T03:23:42.996Z,1006.53
2017-08-28T03:24:42.996Z,1006.58
2017-08-28T03:25:42.970Z,1006.55
2017-08-28T03:26:42.982Z,1006.54
2017-08-28T03:27:42.959Z,1006.54
2017-08-28T03:28:43.299Z,1006.54
2017-08-28T03:29:42.940Z,1006.56
2017-08-28T03:30:42.926Z,1006.56
2017-08-28T03:31:42.926Z,1006.59
2017-08-28T03:32:42.924Z,1006.61
2017-08-28T03:33:42.920Z,1006.61
2017-08-28T03:34:43.111Z,1006.64
2017-08-28T03:35:42.883Z,1006.62
2017-08-28T03:36:42.889Z,1006.61
2017-08-28T03:37:42.889Z,1006.61
2017-08-28T03:38:42.876Z,1006.61
2017-08-28T03:39:42.867Z,1006.60
2017-08-28T03:40:43.055Z,1006.61
2017-08-28T03:41:42.835Z,1006.61
2017-08-28T03:42:42.829Z,1006.61
2017-08-28T03:43:42.833Z,1006.60
2017-08-28T03:44:42.823Z,1006.59
2017-08-28T03:45:42.802Z,1006.56
2017-08-28T03:46:43.085Z,1006.57
2017-08-28T03:47:42.780Z,1006.55
2017-08-28T03:48:42.768Z,1006.61
2017-08-28T03:49:42.761Z,1006.61
2017-08-28T03:50:42.760Z,1006.59
2017-08-28T03:51:42.757Z,1006.56
2017-08-28T03:52:43.044Z,1006.56
2017-08-28T03:53:42.725Z,1006.53
2017-08-28T03:54:42.724Z,1006.54
2017-08-28T03:55:42.716Z,1006.54
2017-08-28T03:56:42.699Z,1006.59
2017-08-28T03:57:42.692Z,1006.55
2017-08-28T03:58:42.901Z,1006.51
2017-08-28T03:59:42.670Z,1006.53
2017-08-28T04:00:42.675Z,1006.50
2017-08-28T04:01:42.656Z,1006.54
2017-08-28T04:02:42.650Z,1006.54
2017-08-28T04:03:42.653Z,1006.56
2017-08-28T04:04:42.869Z,1006.55
2017-08-28T04:05:42.619Z,1006.55
2017-08-28T04:06:42.612Z,1006.50
2017-08-28T04:07:42.598Z,1006.57
2017-08-28T04:08:42.588Z,1006.54
2017-08-28T04:09:42.575Z,1006.57
2017-08-28T04:10:42.890Z,1006.56
2017-08-28T04:11:42.560Z,1006.56
2017-08-28T04:12:42.560Z,1006.57
2017-08-28T04:13:42.540Z,1006.60
2017-08-28T04:14:42.550Z,1006.55
2017-08-28T04:15:42.532Z,1006.56
2017-08-28T04:16:42.848Z,1006.56
2017-08-28T04:17:42.513Z,1006.53
2017-08-28T04:18:42.504Z,1006.53
2017-08-28T04:19:42.486Z,1006.53
2017-08-28T04:20:42.489Z,1006.55
2017-08-28T04:21:42.473Z,1006.54
2017-08-28T04:22:42.775Z,1006.55
2017-08-28T04:23:42.458Z,1006.53
2017-08-28T04:24:42.459Z,1006.54
2017-08-28T04:25:42.448Z,1006.53
2017-08-28T04:26:42.431Z,1006.50
2017-08-28T04:27:42.424Z,1006.51
2017-08-28T04:28:42.776Z,1006.53
2017-08-28T04:29:42.411Z,1006.51
2017-08-28T04:30:42.418Z,1006.57
2017-08-28T04:31:42.390Z,1006.60
2017-08-28T04:32:42.381Z,1006.58
2017-08-28T04:33:42.370Z,1006.61
2017-08-28T04:34:42.739Z,1006.63
2017-08-28T04:35:42.360Z,1006.63
2017-08-28T04:36:42.331Z,1006.64
2017-08-28T04:37:42.396Z,1006.61
2017-08-28T04:38:42.325Z,1006.67
2017-08-28T04:39:42.306Z,1006.69
2017-08-28T04:40:42.611Z,1006.74
2017-08-28T04:41:42.291Z,1006.75
2017-08-28T04:42:42.289Z,1006.77
2017-08-28T04:43:42.291Z,1006.77
2017-08-28T04:44:42.254Z,1006.79
2017-08-28T04:45:42.253Z,1006.78
2017-08-28T04:46:42.545Z,1006.78
2017-08-28T04:47:42.235Z,1006.76
2017-08-28T04:48:42.226Z,1006.76
2017-08-28T04:49:42.217Z,1006.78
2017-08-28T04:50:42.213Z,1006.75
2017-08-28T04:51:42.204Z,1006.78
2017-08-28T04:52:42.517Z,1006.78
2017-08-28T04:53:42.185Z,1006.80
2017-08-28T04:54:42.161Z,1006.76
2017-08-28T04:55:42.157Z,1006.75
2017-08-28T04:56:42.157Z,1006.78
2017-08-28T04:57:42.146Z,1006.77
2017-08-28T04:58:42.579Z,1006.79
2017-08-28T04:59:42.118Z,1006.79
2017-08-28T05:00:42.121Z,1006.89
2017-08-28T05:01:42.099Z,1006.85
2017-08-28T05:02:42.092Z,1006.83
2017-08-28T05:03:42.092Z,1006.83
2017-08-28T05:04:42.415Z,1006.82
2017-08-28T05:05:42.069Z,1006.79
2017-08-28T05:06:42.071Z,1006.77
2017-08-28T05:07:42.041Z,1006.79
2017-08-28T05:08:42.056Z,1006.85
2017-08-28T05:09:42.034Z,1006.83
2017-08-28T05:10:42.358Z,1006.88
2017-08-28T05:11:42.022Z,1006.84
2017-08-28T05:12:42.014Z,1006.86
2017-08-28T05:13:41.998Z,1006.85
2017-08-28T05:14:41.996Z,1006.89
2017-08-28T05:15:41.982Z,1006.87
2017-08-28T05:16:42.254Z,1006.91
2017-08-28T05:17:41.956Z,1006.88
2017-08-28T05:18:41.958Z,1006.85
2017-08-28T05:19:41.944Z,1006.89
2017-08-28T05:20:41.936Z,1006.88
2017-08-28T05:21:41.913Z,1006.88
2017-08-28T05:22:42.267Z,1006.90
2017-08-28T05:23:41.906Z,1006.87
2017-08-28T05:24:41.895Z,1006.83
2017-08-28T05:25:41.905Z,1006.86
2017-08-28T05:26:41.866Z,1006.91
2017-08-28T05:27:41.860Z,1006.86
2017-08-28T05:28:42.197Z,1006.88
2017-08-28T05:29:41.849Z,1006.82
2017-08-28T05:30:41.828Z,1006.82
2017-08-28T05:31:41.818Z,1006.84
2017-08-28T05:32:41.818Z,1006.85
2017-08-28T05:33:41.814Z,1006.84
2017-08-28T05:34:41.814Z,1006.83
2017-08-28T05:35:41.785Z,1006.81
2017-08-28T05:36:41.774Z,1006.83
2017-08-28T05:37:41.793Z,1006.85
2017-08-28T05:38:41.754Z,1006.82
2017-08-28T05:39:42.203Z,1006.83
2017-08-28T05:40:41.748Z,1006.82
2017-08-28T05:41:41.747Z,1006.85
2017-08-28T05:42:41.717Z,1006.82
2017-08-28T05:43:41.711Z,1006.85
2017-08-28T05:44:41.700Z,1006.83
2017-08-28T05:45:42.096Z,1006.86
2017-08-28T05:46:41.679Z,1006.88
2017-08-28T05:47:41.671Z,1006.90
2017-08-28T05:48:41.659Z,1006.89
2017-08-28T05:49:41.658Z,1006.91
2017-08-28T05:50:41.660Z,1006.90
2017-08-28T05:51:41.684Z,1006.91
2017-08-28T05:52:41.627Z,1006.93
2017-08-28T05:53:41.624Z,1006.89
2017-08-28T05:54:41.607Z,1006.91
2017-08-28T05:55:41.613Z,1006.89
2017-08-28T05:56:42.023Z,1006.90
2017-08-28T05:57:41.577Z,1006.90
2017-08-28T05:58:41.582Z,1006.89
2017-08-28T05:59:41.573Z,1006.91
2017-08-28T06:00:41.572Z,1006.91
2017-08-28T06:01:41.554Z,1006.88
2017-08-28T06:02:41.563Z,1006.92
2017-08-28T06:03:41.517Z,1006.95
2017-08-28T06:04:41.533Z,1006.91
2017-08-28T06:05:41.529Z,1006.94
2017-08-28T06:06:41.834Z,1006.93
2017-08-28T06:07:41.494Z,1006.94
2017-08-28T06:08:41.474Z,1006.95
2017-08-28T06:09:41.469Z,1006.96
2017-08-28T06:10:41.471Z,1006.96
2017-08-28T06:11:41.458Z,1007.00
2017-08-28T06:12:41.489Z,1007.00
2017-08-28T06:13:41.430Z,1006.97
2017-08-28T06:14:41.421Z,1006.97
2017-08-28T06:15:41.410Z,1006.96
2017-08-28T06:16:41.434Z,1006.98
2017-08-28T06:17:41.747Z,1006.98
2017-08-28T06:18:41.385Z,1007.01
2017-08-28T06:19:41.377Z,1007.01
2017-08-28T06:20:41.394Z,1007.03
2017-08-28T06:21:41.372Z,1006.96
2017-08-28T06:22:41.356Z,1006.99
2017-08-28T06:23:41.666Z,1007.01
2017-08-28T06:24:41.327Z,1006.98
2017-08-28T06:25:41.333Z,1006.96
2017-08-28T06:26:41.313Z,1006.98
2017-08-28T06:27:41.303Z,1007.05
2017-08-28T06:28:41.323Z,1007.01
2017-08-28T06:29:41.634Z,1007.03
2017-08-28T06:30:41.278Z,1007.04
2017-08-28T06:31:41.284Z,1007.03
2017-08-28T06:32:41.261Z,1007.03
2017-08-28T06:33:41.270Z,1007.06
2017-08-28T06:34:41.250Z,1007.06
2017-08-28T06:35:41.272Z,1007.02
2017-08-28T06:36:41.235Z,1007.01
2017-08-28T06:37:41.220Z,1007.00
2017-08-28T06:38:41.638Z,1007.01
2017-08-28T06:39:41.195Z,1007.00
2017-08-28T06:40:41.189Z,1007.00
2017-08-28T06:41:41.178Z,1006.98
2017-08-28T06:42:41.169Z,1006.98
2017-08-28T06:43:41.157Z,1006.98
2017-08-28T06:44:41.465Z,1007.01
2017-08-28T06:45:41.167Z,1007.05
2017-08-28T06:46:41.137Z,1007.04
2017-08-28T06:47:41.132Z,1007.03
2017-08-28T06:48:41.120Z,1007.01
2017-08-28T06:49:41.101Z,1007.06
2017-08-28T06:50:41.500Z,1007.00
2017-08-28T06:51:41.104Z,1007.04
2017-08-28T06:52:41.097Z,1007.00
2017-08-28T06:53:41.065Z,1007.02
2017-08-28T06:54:41.072Z,1007.05
2017-08-28T06:55:41.060Z,1007.04
2017-08-28T06:56:41.256Z,1007.03
2017-08-28T06:57:41.056Z,1007.07
2017-08-28T06:58:41.024Z,1007.04
2017-08-28T06:59:41.024Z,1007.05
2017-08-28T07:00:41.006Z,1007.04
2017-08-28T07:01:41.008Z,1007.08
2017-08-28T07:02:41.317Z,1007.02
2017-08-28T07:03:40.977Z,1007.05
2017-08-28T07:04:40.979Z,1007.04
2017-08-28T07:05:40.994Z,1007.02
2017-08-28T07:06:40.980Z,1007.06
2017-08-28T07:07:40.954Z,1007.05
2017-08-28T07:08:41.287Z,1007.03
2017-08-28T07:09:40.925Z,1007.06
2017-08-28T07:10:40.920Z,1007.07
2017-08-28T07:11:40.923Z,1007.02
2017-08-28T07:12:40.900Z,1007.08
2017-08-28T07:13:40.900Z,1007.08
2017-08-28T07:14:40.910Z,1007.08
2017-08-28T07:15:40.894Z,1007.08
2017-08-28T07:16:40.874Z,1007.07
2017-08-28T07:17:40.860Z,1007.14
2017-08-28T07:18:41.292Z,1007.13
2017-08-28T07:19:40.838Z,1007.11
2017-08-28T07:20:40.830Z,1007.09
2017-08-28T07:21:40.834Z,1007.13
2017-08-28T07:22:40.826Z,1007.12
2017-08-28T07:23:40.802Z,1007.14
2017-08-28T07:24:41.230Z,1007.12
2017-08-28T07:25:40.801Z,1007.17
2017-08-28T07:27:01.804Z,1007.17
2017-08-28T07:27:40.795Z,1007.14
2017-08-28T07:28:40.761Z,1007.15
2017-08-28T07:29:40.770Z,1007.12
2017-08-28T07:30:40.775Z,1007.18
2017-08-28T07:31:40.745Z,1007.11
2017-08-28T07:32:40.728Z,1007.10
2017-08-28T07:33:40.720Z,1007.13
2017-08-28T07:34:40.735Z,1007.10
2017-08-28T07:35:40.713Z,1007.11
2017-08-28T07:36:40.695Z,1007.07
2017-08-28T07:37:40.685Z,1007.10
2017-08-28T07:38:40.681Z,1007.10
2017-08-28T07:39:41.012Z,1007.08
2017-08-28T07:40:40.676Z,1007.11
2017-08-28T07:41:40.678Z,1007.12
2017-08-28T07:42:40.655Z,1007.15
2017-08-28T07:43:40.636Z,1007.17
2017-08-28T07:44:40.647Z,1007.14
2017-08-28T07:45:40.960Z,1007.13
2017-08-28T07:46:40.608Z,1007.12
2017-08-28T07:47:40.617Z,1007.16
2017-08-28T07:48:40.591Z,1007.21
2017-08-28T07:49:40.581Z,1007.17
2017-08-28T07:50:40.590Z,1007.19
2017-08-28T07:51:40.937Z,1007.22
2017-08-28T07:52:40.584Z,1007.26
2017-08-28T07:53:40.557Z,1007.25
2017-08-28T07:54:40.557Z,1007.26
2017-08-28T07:55:40.541Z,1007.28
2017-08-28T07:56:40.548Z,1007.28
2017-08-28T07:57:40.919Z,1007.26
2017-08-28T07:58:40.517Z,1007.25
2017-08-28T07:59:40.499Z,1007.28
2017-08-28T08:00:40.506Z,1007.27
2017-08-28T08:01:40.493Z,1007.28
2017-08-28T08:02:40.481Z,1007.26
2017-08-28T08:03:40.773Z,1007.22
2017-08-28T08:04:40.457Z,1007.23
2017-08-28T08:05:40.452Z,1007.21
2017-08-28T08:06:40.452Z,1007.24
2017-08-28T08:07:40.447Z,1007.22
2017-08-28T08:08:40.440Z,1007.23
2017-08-28T08:09:40.721Z,1007.22
2017-08-28T08:10:40.409Z,1007.26
2017-08-28T08:11:40.413Z,1007.25
2017-08-28T08:12:40.394Z,1007.26
2017-08-28T08:13:40.397Z,1007.25
2017-08-28T08:14:40.385Z,1007.25
2017-08-28T08:15:40.401Z,1007.29
2017-08-28T08:16:40.361Z,1007.27
2017-08-28T08:17:40.372Z,1007.31
2017-08-28T08:18:40.352Z,1007.30
2017-08-28T08:19:40.551Z,1007.32
2017-08-28T08:20:40.340Z,1007.30
2017-08-28T08:21:40.325Z,1007.28
2017-08-28T08:22:40.330Z,1007.32
2017-08-28T08:23:40.306Z,1007.31
2017-08-28T08:24:40.295Z,1007.30
2017-08-28T08:25:40.679Z,1007.29
2017-08-28T08:26:40.280Z,1007.31
2017-08-28T08:27:40.276Z,1007.33
2017-08-28T08:28:40.263Z,1007.32
2017-08-28T08:29:40.269Z,1007.34
2017-08-28T08:30:40.258Z,1007.32
2017-08-28T08:31:40.693Z,1007.34
2017-08-28T08:32:40.241Z,1007.35
2017-08-28T08:33:40.249Z,1007.35
2017-08-28T08:34:40.229Z,1007.38
2017-08-28T08:35:40.225Z,1007.40
2017-08-28T08:36:40.229Z,1007.39
2017-08-28T08:37:40.552Z,1007.38
2017-08-28T08:38:40.202Z,1007.40
2017-08-28T08:39:40.184Z,1007.37
2017-08-28T08:40:40.277Z,1007.37
2017-08-28T08:41:40.378Z,1007.37
2017-08-28T08:42:40.177Z,1007.34
2017-08-28T08:43:40.558Z,1007.39
2017-08-28T08:44:40.151Z,1007.38
2017-08-28T08:45:40.144Z,1007.35
2017-08-28T08:46:40.132Z,1007.40
2017-08-28T08:47:40.119Z,1007.35
2017-08-28T08:48:40.114Z,1007.34
2017-08-28T08:49:40.466Z,1007.35
2017-08-28T08:50:40.099Z,1007.35
2017-08-28T08:51:40.088Z,1007.32
2017-08-28T08:52:40.095Z,1007.32
2017-08-28T08:53:40.089Z,1007.31
2017-08-28T08:54:40.066Z,1007.29
2017-08-28T08:55:40.439Z,1007.29
2017-08-28T08:56:40.066Z,1007.35
2017-08-28T08:57:40.166Z,1007.32
2017-08-28T08:58:40.126Z,1007.32
2017-08-28T08:59:40.164Z,1007.34
2017-08-28T09:00:40.039Z,1007.34
2017-08-28T09:01:40.431Z,1007.35
2017-08-28T09:02:40.016Z,1007.37
2017-08-28T09:03:40.024Z,1007.38
2017-08-28T09:04:40.002Z,1007.40
2017-08-28T09:05:39.994Z,1007.42
2017-08-28T09:06:39.980Z,1007.39
2017-08-28T09:07:40.278Z,1007.40
2017-08-28T09:08:39.984Z,1007.40
2017-08-28T09:09:39.971Z,1007.39
2017-08-28T09:10:39.960Z,1007.40
2017-08-28T09:11:39.951Z,1007.44
2017-08-28T09:12:39.954Z,1007.43
2017-08-28T09:13:40.148Z,1007.46
2017-08-28T09:14:39.925Z,1007.43
2017-08-28T09:15:39.933Z,1007.43
2017-08-28T09:16:39.903Z,1007.41
2017-08-28T09:17:39.908Z,1007.38
2017-08-28T09:18:39.890Z,1007.39
2017-08-28T09:19:39.920Z,1007.41
2017-08-28T09:20:39.880Z,1007.36
2017-08-28T09:21:40.311Z,1007.37
2017-08-28T09:22:39.861Z,1007.39
2017-08-28T09:23:39.855Z,1007.36
2017-08-28T09:24:39.867Z,1007.35
2017-08-28T09:25:39.839Z,1007.35
2017-08-28T09:26:39.851Z,1007.35
2017-08-28T09:27:40.049Z,1007.33
2017-08-28T09:28:39.832Z,1007.34
2017-08-28T09:29:39.812Z,1007.38
2017-08-28T09:30:39.809Z,1007.38
2017-08-28T09:31:39.815Z,1007.38
2017-08-28T09:32:39.799Z,1007.34
2017-08-28T09:33:40.150Z,1007.34
2017-08-28T09:34:39.788Z,1007.34
2017-08-28T09:35:39.783Z,1007.33
2017-08-28T09:36:39.777Z,1007.31
2017-08-28T09:37:39.759Z,1007.34
2017-08-28T09:38:39.760Z,1007.34
2017-08-28T09:39:40.052Z,1007.34
2017-08-28T09:40:39.766Z,1007.40
2017-08-28T09:41:39.729Z,1007.35
2017-08-28T09:42:39.739Z,1007.39
2017-08-28T09:43:39.730Z,1007.37
2017-08-28T09:44:39.726Z,1007.36
2017-08-28T09:45:39.744Z,1007.36
2017-08-28T09:46:40.113Z,1007.40
2017-08-28T09:47:39.691Z,1007.38
2017-08-28T09:48:39.701Z,1007.39
2017-08-28T09:49:39.699Z,1007.39
2017-08-28T09:50:39.673Z,1007.40
2017-08-28T09:51:39.679Z,1007.34
2017-08-28T09:52:40.022Z,1007.37
2017-08-28T09:53:39.660Z,1007.39
2017-08-28T09:54:39.661Z,1007.38
2017-08-28T09:55:39.640Z,1007.36
2017-08-28T09:56:39.643Z,1007.37
2017-08-28T09:57:39.648Z,1007.39
2017-08-28T09:58:39.990Z,1007.38
2017-08-28T09:59:39.613Z,1007.39
2017-08-28T10:00:39.605Z,1007.39
2017-08-28T10:01:39.613Z,1007.34
2017-08-28T10:02:39.603Z,1007.37
2017-08-28T10:03:39.588Z,1007.36
2017-08-28T10:04:39.984Z,1007.40
2017-08-28T10:05:39.590Z,1007.43
2017-08-28T10:06:39.571Z,1007.38
2017-08-28T10:07:39.574Z,1007.41
2017-08-28T10:08:39.560Z,1007.36
2017-08-28T10:09:39.548Z,1007.37
2017-08-28T10:10:39.991Z,1007.33
2017-08-28T10:11:39.558Z,1007.35
2017-08-28T10:12:39.526Z,1007.32
2017-08-28T10:13:39.546Z,1007.28
2017-08-28T10:14:39.523Z,1007.28
2017-08-28T10:15:39.529Z,1007.28
2017-08-28T10:16:39.549Z,1007.31
2017-08-28T10:17:39.791Z,1007.27
2017-08-28T10:18:39.505Z,1007.27
2017-08-28T10:19:39.503Z,1007.27
2017-08-28T10:20:39.480Z,1007.27
2017-08-28T10:21:39.471Z,1007.30
2017-08-28T10:22:39.480Z,1007.28
2017-08-28T10:23:39.908Z,1007.29
2017-08-28T10:24:39.461Z,1007.27
2017-08-28T10:25:39.442Z,1007.25
2017-08-28T10:26:39.441Z,1007.25
2017-08-28T10:27:39.441Z,1007.24
2017-08-28T10:28:39.426Z,1007.21
2017-08-28T10:29:39.856Z,1007.21
2017-08-28T10:30:39.417Z,1007.23
2017-08-28T10:31:39.406Z,1007.20
2017-08-28T10:32:39.404Z,1007.22
2017-08-28T10:33:39.407Z,1007.17
2017-08-28T10:34:39.406Z,1007.20
2017-08-28T10:35:39.940Z,1007.16
2017-08-28T10:36:39.388Z,1007.12
2017-08-28T10:37:39.380Z,1007.16
2017-08-28T10:38:39.375Z,1007.16
2017-08-28T10:39:39.359Z,1007.17
2017-08-28T10:40:39.355Z,1007.19
2017-08-28T10:41:39.370Z,1007.17
2017-08-28T10:42:39.781Z,1007.16
2017-08-28T10:43:39.333Z,1007.19
2017-08-28T10:44:39.340Z,1007.15
2017-08-28T10:45:39.328Z,1007.15
2017-08-28T10:46:39.313Z,1007.13
2017-08-28T10:47:39.319Z,1007.12
2017-08-28T10:48:39.616Z,1007.12
2017-08-28T10:49:39.294Z,1007.10
2017-08-28T10:50:39.286Z,1007.12
2017-08-28T10:51:39.287Z,1007.10
2017-08-28T10:52:39.302Z,1007.08
2017-08-28T10:53:39.282Z,1007.08
2017-08-28T10:54:39.615Z,1007.03
2017-08-28T10:55:39.263Z,1007.01
2017-08-28T10:56:39.265Z,1007.04
2017-08-28T10:57:39.247Z,1006.98
2017-08-28T10:58:39.259Z,1007.00
2017-08-28T10:59:39.272Z,1007.00
2017-08-28T11:00:39.653Z,1006.96
2017-08-28T11:01:39.233Z,1006.96
2017-08-28T11:02:39.215Z,1006.96
2017-08-28T11:03:39.212Z,1006.96
2017-08-28T11:04:39.215Z,1006.92
2017-08-28T11:05:39.202Z,1006.94
2017-08-28T11:06:39.534Z,1006.91
2017-08-28T11:07:39.204Z,1006.93
2017-08-28T11:08:39.211Z,1006.94
2017-08-28T11:09:39.202Z,1006.90
2017-08-28T11:10:39.180Z,1006.90
2017-08-28T11:11:39.162Z,1006.88
2017-08-28T11:12:39.589Z,1006.86
2017-08-28T11:13:39.150Z,1006.90
2017-08-28T11:14:39.148Z,1006.92
2017-08-28T11:15:39.154Z,1006.94
2017-08-28T11:16:39.147Z,1006.94
2017-08-28T11:17:39.129Z,1006.92
2017-08-28T11:18:39.338Z,1006.97
2017-08-28T11:19:39.116Z,1006.96
2017-08-28T11:20:39.136Z,1006.96
2017-08-28T11:21:39.105Z,1006.93
2017-08-28T11:22:39.098Z,1006.98
2017-08-28T11:23:39.105Z,1006.97
2017-08-28T11:24:39.398Z,1006.94
2017-08-28T11:25:39.082Z,1006.91
2017-08-28T11:26:39.087Z,1006.93
2017-08-28T11:27:39.083Z,1006.92
2017-08-28T11:28:39.081Z,1006.89
2017-08-28T11:29:39.069Z,1006.87
2017-08-28T11:30:39.085Z,1006.84
2017-08-28T11:31:39.058Z,1006.85
2017-08-28T11:32:39.062Z,1006.82
2017-08-28T11:33:39.504Z,1006.84
2017-08-28T11:34:39.047Z,1006.82
2017-08-28T11:35:39.034Z,1006.81
2017-08-28T11:36:39.027Z,1006.79
2017-08-28T11:37:39.027Z,1006.82
2017-08-28T11:38:39.021Z,1006.78
2017-08-28T11:39:39.355Z,1006.77
2017-08-28T11:40:39.012Z,1006.76
2017-08-28T11:41:39.004Z,1006.79
2017-08-28T11:42:38.986Z,1006.80
2017-08-28T11:43:38.994Z,1006.81
2017-08-28T11:44:38.992Z,1006.77
2017-08-28T11:45:39.788Z,1006.79
2017-08-28T11:46:38.978Z,1006.82
2017-08-28T11:47:38.960Z,1006.77
2017-08-28T11:48:38.967Z,1006.76
2017-08-28T11:49:38.948Z,1006.74
2017-08-28T11:50:38.950Z,1006.73
2017-08-28T11:51:38.987Z,1006.72
2017-08-28T11:52:38.945Z,1006.71
2017-08-28T11:53:39.303Z,1006.69
2017-08-28T11:54:38.923Z,1006.70
2017-08-28T11:55:38.932Z,1006.71
2017-08-28T11:56:38.920Z,1006.71
2017-08-28T11:57:38.905Z,1006.68
2017-08-28T11:58:38.908Z,1006.69
2017-08-28T11:59:39.364Z,1006.71
2017-08-28T12:00:38.896Z,1006.67
2017-08-28T12:01:38.882Z,1006.66
2017-08-28T12:02:38.882Z,1006.70
2017-08-28T12:03:38.876Z,1006.66
2017-08-28T12:04:38.879Z,1006.66
2017-08-28T12:05:39.240Z,1006.66